createdAt,value
2018-06-01T00:03:23.777Z,24.70
2018-06-01T00:08:25.862Z,24.63
2018-06-01T00:13:27.235Z,24.51
2018-06-01T00:18:28.570Z,24.69
2018-06-01T00:23:30.661Z,24.60
2018-06-01T00:28:32.738Z,24.53
2018-06-01T00:33:34.069Z,24.62
2018-06-01T00:38:36.146Z,24.53
2018-06-01T00:43:37.486Z,24.56
2018-06-01T00:48:38.845Z,24.45
2018-06-01T00:53:40.168Z,24.34
2018-06-01T00:58:41.478Z,24.31
2018-06-01T01:03:42.819Z,24.17
2018-06-01T01:08:44.918Z,24.14
2018-06-01T01:13:46.269Z,24.11
2018-06-01T01:18:47.614Z,24.20
2018-06-01T01:23:49.727Z,24.28
2018-06-01T01:28:51.798Z,24.27
2018-06-01T01:33:53.137Z,24.11
2018-06-01T01:38:54.492Z,24.01
2018-06-01T01:43:55.844Z,23.74
2018-06-01T01:48:57.988Z,23.89
2018-06-01T01:53:59.339Z,23.89
2018-06-01T01:59:00.690Z,23.81
2018-06-01T02:04:02.794Z,23.82
2018-06-01T02:09:04.874Z,23.78
2018-06-01T02:14:06.291Z,23.65
2018-06-01T02:19:07.624Z,23.56
2018-06-01T02:24:08.936Z,23.54
2018-06-01T02:29:10.381Z,23.51
2018-06-01T02:34:11.735Z,23.56
2018-06-01T02:39:14.002Z,23.65
2018-06-01T02:44:15.318Z,23.66
2018-06-01T02:49:16.666Z,23.74
2018-06-01T02:54:18.029Z,23.70
2018-06-01T02:59:20.109Z,23.61
2018-06-01T03:04:21.418Z,23.39
2018-06-01T03:09:22.753Z,23.14
2018-06-01T03:14:24.099Z,23.19
2018-06-01T03:19:26.187Z,23.22
2018-06-01T03:24:27.542Z,23.12
2018-06-01T03:29:28.896Z,23.32
2018-06-01T03:34:30.975Z,23.38
2018-06-01T03:39:32.311Z,23.42
2018-06-01T03:44:33.646Z,23.44
2018-06-01T03:49:34.979Z,23.53
2018-06-01T03:54:37.061Z,23.58
2018-06-01T03:59:38.362Z,23.54
2018-06-01T04:04:40.430Z,23.57
2018-06-01T04:09:41.775Z,23.69
2018-06-01T04:14:43.893Z,23.64
2018-06-01T04:19:45.218Z,23.79
2018-06-01T04:24:47.389Z,24.01
2018-06-01T04:29:49.799Z,24.10
2018-06-01T04:34:51.174Z,24.32
2018-06-01T04:39:53.242Z,24.62
2018-06-01T04:44:54.566Z,24.86
2018-06-01T04:49:56.654Z,25.10
2018-06-01T04:54:58.003Z,25.26
2018-06-01T04:59:59.414Z,25.50
2018-06-01T05:05:00.750Z,25.57
2018-06-01T05:10:02.842Z,25.69
2018-06-01T05:15:04.333Z,25.81
2018-06-01T05:20:05.698Z,26.04
2018-06-01T05:25:07.010Z,26.28
2018-06-01T05:30:08.311Z,26.41
2018-06-01T05:35:09.670Z,26.52
2018-06-01T05:40:10.979Z,26.83
2018-06-01T05:45:12.302Z,26.82
2018-06-01T05:50:13.618Z,26.88
2018-06-01T05:55:14.926Z,26.75
2018-06-01T06:00:16.233Z,26.69
2018-06-01T06:05:17.569Z,26.83
2018-06-01T06:10:18.898Z,27.18
2018-06-01T06:15:20.228Z,27.19
2018-06-01T06:20:22.270Z,27.16
2018-06-01T06:25:23.599Z,27.29
2018-06-01T06:30:24.910Z,27.64
2018-06-01T06:35:26.970Z,27.53
2018-06-01T06:40:28.312Z,27.56
2018-06-01T06:45:30.370Z,27.69
2018-06-01T06:50:31.730Z,28.22
2018-06-01T06:55:33.053Z,28.53
2018-06-01T07:00:34.367Z,28.76
2018-06-01T07:05:36.427Z,28.65
2018-06-01T07:10:37.783Z,28.88
2018-06-01T07:15:39.133Z,29.25
2018-06-01T07:20:40.469Z,29.45
2018-06-01T07:25:41.798Z,29.25
2018-06-01T07:30:43.118Z,28.90
2018-06-01T07:35:44.438Z,28.83
2018-06-01T07:40:45.782Z,28.93
2018-06-01T07:45:47.107Z,29.68
2018-06-01T07:50:48.426Z,30.60
2018-06-01T07:55:49.757Z,30.95
2018-06-01T08:00:51.080Z,30.86
2018-06-01T08:05:52.460Z,30.63
2018-06-01T08:10:54.539Z,30.90
2018-06-01T08:15:55.847Z,31.34
2018-06-01T08:20:57.902Z,31.48
2018-06-01T08:25:59.253Z,31.62
2018-06-01T08:31:01.318Z,31.26
2018-06-01T08:36:02.652Z,31.26
2018-06-01T08:41:04.753Z,31.25
2018-06-01T08:46:06.812Z,31.38
2018-06-01T08:51:08.130Z,31.30
2018-06-01T08:56:09.475Z,31.16
2018-06-01T09:01:10.794Z,31.00
2018-06-01T09:06:12.146Z,31.21
2018-06-01T09:11:13.498Z,31.35
2018-06-01T09:16:14.810Z,31.46
2018-06-01T09:21:16.186Z,31.33
2018-06-01T09:26:18.234Z,31.19
2018-06-01T09:31:19.543Z,31.35
2018-06-01T09:36:20.866Z,31.59
2018-06-01T09:41:22.918Z,32.31
2018-06-01T09:46:24.289Z,32.17
2018-06-01T09:51:25.778Z,32.43
2018-06-01T09:56:27.085Z,32.56
2018-06-01T10:01:28.459Z,33.02
2018-06-01T10:06:30.636Z,33.26
2018-06-01T10:11:32.008Z,32.68
2018-06-01T10:16:33.347Z,33.14
2018-06-01T10:21:34.677Z,33.55
2018-06-01T10:26:36.024Z,33.46
2018-06-01T10:31:37.346Z,33.14
2018-06-01T10:36:38.689Z,32.78
2018-06-01T10:41:40.772Z,33.12
2018-06-01T10:46:42.112Z,32.45
2018-06-01T10:51:43.434Z,31.92
2018-06-01T10:56:44.756Z,31.74
2018-06-01T11:01:46.834Z,31.46
2018-06-01T11:06:48.190Z,31.44
2018-06-01T11:11:49.576Z,31.46
2018-06-01T11:16:50.902Z,31.28
2018-06-01T11:21:53.033Z,31.01
2018-06-01T11:26:55.111Z,30.85
2018-06-01T11:31:56.463Z,30.67
2018-06-01T11:36:57.898Z,30.22
2018-06-01T11:41:59.736Z,29.34
2018-06-01T11:47:01.810Z,28.51
2018-06-01T11:52:03.169Z,28.14
2018-06-01T11:57:04.521Z,28.27
2018-06-01T12:02:06.611Z,27.44
2018-06-01T12:07:08.018Z,26.68
2018-06-01T12:12:10.121Z,26.95
2018-06-01T12:17:12.202Z,27.06
2018-06-01T12:22:13.529Z,27.13
2018-06-01T12:27:15.579Z,27.09
2018-06-01T12:32:16.921Z,26.83
2018-06-01T12:37:18.982Z,26.67
2018-06-01T12:42:20.311Z,26.55
2018-06-01T12:47:21.629Z,26.46
2018-06-01T12:52:22.998Z,26.33
2018-06-01T12:57:25.047Z,26.21
2018-06-01T13:02:26.410Z,26.22
2018-06-01T13:07:27.802Z,26.48
2018-06-01T13:12:29.262Z,26.37
2018-06-01T13:17:30.658Z,26.52
2018-06-01T13:22:32.027Z,26.72
2018-06-01T13:27:33.355Z,26.95
2018-06-01T13:32:35.414Z,27.21
2018-06-01T13:37:36.758Z,27.46
2018-06-01T13:42:38.093Z,27.58
2018-06-01T13:47:39.434Z,27.71
2018-06-01T13:52:40.782Z,27.92
2018-06-01T13:57:42.103Z,28.17
2018-06-01T14:02:44.178Z,28.22
2018-06-01T14:07:45.526Z,28.16
2018-06-01T14:12:46.899Z,28.14
2018-06-01T14:17:48.951Z,28.16
2018-06-01T14:22:50.294Z,28.30
2018-06-01T14:27:52.412Z,28.41
2018-06-01T14:32:53.729Z,28.78
2018-06-01T14:37:55.058Z,28.91
2018-06-01T14:42:56.376Z,28.99
2018-06-01T14:47:57.706Z,29.32
2018-06-01T14:52:59.043Z,29.51
2018-06-01T14:58:01.139Z,29.74
2018-06-01T15:03:02.479Z,29.95
2018-06-01T15:08:03.835Z,30.23
2018-06-01T15:13:05.923Z,30.03
2018-06-01T15:18:07.275Z,29.40
2018-06-01T15:23:08.639Z,29.39
2018-06-01T15:28:09.968Z,29.71
2018-06-01T15:33:11.302Z,29.55
2018-06-01T15:38:13.392Z,29.94
2018-06-01T15:43:15.550Z,30.14
2018-06-01T15:48:16.910Z,29.88
2018-06-01T15:53:18.242Z,29.86
2018-06-01T15:58:19.596Z,30.25
2018-06-01T16:03:20.943Z,30.05
2018-06-01T16:08:23.468Z,30.08
2018-06-01T16:13:24.947Z,30.61
2018-06-01T16:18:26.284Z,31.24
2018-06-01T16:23:27.663Z,31.83
2018-06-01T16:28:29.747Z,32.42
2018-06-01T16:33:31.263Z,32.36
2018-06-01T16:38:33.382Z,32.02
2018-06-01T16:43:34.723Z,31.95
2018-06-01T16:48:36.051Z,32.01
2018-06-01T16:53:38.112Z,31.28
2018-06-01T16:58:39.444Z,30.47
2018-06-01T17:03:41.531Z,30.66
2018-06-01T17:08:42.858Z,30.78
2018-06-01T17:13:44.213Z,30.70
2018-06-01T17:18:45.599Z,30.54
2018-06-01T17:23:46.922Z,30.46
2018-06-01T17:28:48.252Z,30.26
2018-06-01T17:33:49.603Z,29.96
2018-06-01T17:38:50.938Z,29.74
2018-06-01T17:43:52.323Z,29.46
2018-06-01T17:48:53.711Z,29.32
2018-06-01T17:53:55.103Z,29.05
2018-06-01T17:58:56.438Z,28.76
2018-06-01T18:03:58.555Z,28.46
2018-06-01T18:08:59.940Z,28.19
2018-06-01T18:14:02.173Z,28.09
2018-06-01T18:19:03.577Z,28.08
2018-06-01T18:24:04.971Z,27.88
2018-06-01T18:29:06.566Z,27.89
2018-06-01T18:34:08.113Z,27.86
2018-06-01T18:39:10.235Z,27.83
2018-06-01T18:44:12.369Z,27.79
2018-06-01T18:49:13.829Z,27.76
2018-06-01T18:54:15.222Z,27.67
2018-06-01T18:59:17.416Z,27.51
2018-06-01T19:04:19.479Z,27.24
2018-06-01T19:09:20.823Z,27.15
2018-06-01T19:14:22.980Z,27.11
2018-06-01T19:19:24.356Z,27.03
2018-06-01T19:24:25.701Z,26.97
2018-06-01T19:29:27.096Z,26.87
2018-06-01T19:34:29.262Z,26.75
2018-06-01T19:39:31.642Z,26.75
2018-06-01T19:44:32.978Z,26.73
2018-06-01T19:49:34.342Z,26.72
2018-06-01T19:54:35.723Z,26.56
2018-06-01T19:59:38.177Z,26.43
2018-06-01T20:04:40.419Z,26.39
2018-06-01T20:09:42.482Z,26.33
2018-06-01T20:14:45.612Z,26.34
2018-06-01T20:19:48.759Z,26.33
2018-06-01T20:24:51.093Z,26.29
2018-06-01T20:29:53.380Z,26.40
2018-06-01T20:34:55.416Z,26.38
2018-06-01T20:39:57.392Z,26.17
2018-06-01T20:44:58.847Z,26.37
2018-06-01T20:50:00.183Z,26.50
2018-06-01T20:55:01.515Z,26.42
2018-06-01T21:00:02.950Z,26.24
2018-06-01T21:05:04.332Z,25.88
2018-06-01T21:10:05.678Z,25.53
2018-06-01T21:15:07.782Z,25.23
2018-06-01T21:20:09.862Z,25.13
2018-06-01T21:25:11.423Z,24.81
2018-06-01T21:30:12.795Z,24.89
2018-06-01T21:35:14.167Z,24.76
2018-06-01T21:40:16.463Z,24.71
2018-06-01T21:45:17.879Z,24.72
2018-06-01T21:50:19.210Z,24.53
2018-06-01T21:55:20.539Z,24.59
2018-06-01T22:00:22.647Z,24.69
2018-06-01T22:05:24.770Z,24.70
2018-06-01T22:10:27.026Z,24.72
2018-06-01T22:15:28.381Z,24.55
2018-06-01T22:20:29.780Z,24.08
2018-06-01T22:25:31.161Z,23.95
2018-06-01T22:30:32.511Z,23.96
2018-06-01T22:35:33.842Z,24.10
2018-06-01T22:40:35.159Z,24.15
2018-06-01T22:45:36.618Z,24.24
2018-06-01T22:50:37.958Z,24.22
2018-06-01T22:55:39.432Z,24.09
2018-06-01T23:00:40.790Z,23.90
2018-06-01T23:05:42.102Z,23.85
2018-06-01T23:10:44.152Z,23.57
2018-06-01T23:15:45.495Z,23.40
2018-06-01T23:20:46.946Z,23.10
2018-06-01T23:25:48.407Z,23.02
2018-06-01T23:30:49.759Z,22.93
2018-06-01T23:35:51.086Z,22.83
2018-06-01T23:40:52.436Z,22.83
2018-06-01T23:45:53.796Z,22.80
2018-06-01T23:50:55.140Z,22.94
2018-06-01T23:55:56.458Z,22.95
